Aviation Digital Data Service (ADDS)

Output produced by METARs form (1924 UTC 18 June 2019)
found at http://www.aviationweather.gov/metar/data/
 
Forecast for: ESIB (SATENAS (SWE-AFB, SE)
Text: TAF ESIB 181130Z 1812/1815 21010G23KT CAVOK
Forecast period: 1200 to 1500 UTC 18 June 2019
Forecast type: FROM: standard forecast or significant change
Winds: from the SSW (210 degrees) at 12 MPH (10 knots; 5.1 m/s)
gusting to 26 MPH (23 knots; 11.8 m/s)
Visibility: 6 or more miles 10+ km)
Ceiling: unknown
Clouds: missing
Weather: NSW  (no significant weather)
Text: TEMPO 1812/1815 5000 SHRA BKN025CB
Forecast period: 1200 to 1500 UTC 18 June 2019
Forecast type: TEMPORARY: The following changes expected for less than half the time period
Visibility: 3 miles (5 km)
Ceiling: 2500 feet AGL
Clouds: broken clouds at 2500 feet AGL
Weather: SHRA  (rain showers)
Text: PROB30
Forecast period: 1200 to 1500 UTC 18 June 2019
Forecast type: TEMPORARY: The following changes expected for less than half the time period
Visibility: 1.86 miles (2.99 km)
Ceiling: unknown
Clouds: missing
Weather: TSRA  (rain associated with thunderstorm(s))